Time;durP1;ratioP1;P1;durP2;ratioP2;P2;SDS_P1;SDS_P2;PMS_P1;PMS_P2;Temp;Humidity;BMP_temperature;BMP_pressure;BME280_temperature;BME280_humidity;BME280_pressure;Samples;Min_cycle;Max_cycle;Signal;HPM_P1;HPM_P2
2023/09/06 00:00:55;;;;;;;4.00;2.83;;;21.10;68.90;;;;;;9178445;19;20014;-66
2023/09/06 00:04:01;;;;;;;7.57;2.55;;;21.10;68.90;;;;;;9178944;19;20014;-66
2023/09/06 00:07:11;;;;;;;4.07;3.13;;;21.10;69.00;;;;;;9178474;19;20053;-66
2023/09/06 00:10:17;;;;;;;7.13;3.05;;;21.00;69.20;;;;;;9179311;19;20022;-68
2023/09/06 00:13:25;;;;;;;4.90;3.08;;;21.00;69.20;;;;;;9176737;19;20022;-66
2023/09/06 00:16:33;;;;;;;5.07;3.47;;;20.90;69.20;;;;;;9176663;19;20015;-66
2023/09/06 00:19:42;;;;;;;9.15;3.42;;;20.80;69.30;;;;;;9173844;19;20010;-67
2023/09/06 00:22:58;;;;;;;4.68;2.85;;;20.90;69.40;;;;;;9178328;19;20010;-67
2023/09/06 00:26:05;;;;;;;4.30;3.22;;;20.80;69.60;;;;;;9174168;19;20029;-67
2023/09/06 00:29:11;;;;;;;5.35;3.03;;;20.70;69.50;;;;;;9178382;19;20014;-69
2023/09/06 00:32:24;;;;;;;6.87;3.00;;;20.70;69.60;;;;;;9178235;19;20014;-67
2023/09/06 00:35:29;;;;;;;4.03;3.08;;;20.70;69.60;;;;;;9175468;19;20392;-67
2023/09/06 00:38:46;;;;;;;4.15;3.13;;;20.60;69.70;;;;;;9177424;19;20025;-67
2023/09/06 00:41:51;;;;;;;4.28;2.83;;;20.60;69.80;;;;;;9176281;19;20086;-67
2023/09/06 00:45:00;;;;;;;6.55;3.03;;;20.50;69.70;;;;;;9176960;19;20036;-67
2023/09/06 00:48:08;;;;;;;4.00;2.78;;;20.50;69.80;;;;;;9176367;19;20052;-67
2023/09/06 00:51:15;;;;;;;6.22;3.20;;;20.50;70.00;;;;;;9175532;19;20353;-68
2023/09/06 00:54:25;;;;;;;8.02;3.15;;;20.40;69.90;;;;;;9175661;19;20018;-68
2023/09/06 00:57:33;;;;;;;6.85;3.60;;;20.30;70.70;;;;;;9176526;19;20023;-67
2023/09/06 01:00:39;;;;;;;5.90;3.42;;;20.30;70.10;;;;;;9177407;19;20472;-67
2023/09/06 01:03:47;;;;;;;6.00;3.05;;;20.30;70.10;;;;;;9175365;19;20372;-69
2023/09/06 01:06:57;;;;;;;3.97;3.20;;;20.20;70.20;;;;;;9184383;19;20025;-68
2023/09/06 01:10:09;;;;;;;5.57;3.17;;;20.20;70.30;;;;;;9185611;19;20340;-66
2023/09/06 01:13:15;;;;;;;4.68;3.33;;;20.10;70.40;;;;;;9184297;19;20387;-66
2023/09/06 01:16:34;;;;;;;5.13;3.40;;;20.10;70.40;;;;;;9181006;19;20365;-68
2023/09/06 01:19:54;;;;;;;9.73;3.15;;;20.10;70.70;;;;;;9184104;19;20018;-68
2023/09/06 01:23:09;;;;;;;6.32;2.70;;;20.00;70.60;;;;;;9183338;19;20029;-67
2023/09/06 01:26:19;;;;;;;6.63;3.10;;;20.00;70.70;;;;;;9179865;19;20064;-67
2023/09/06 01:29:26;;;;;;;8.07;3.13;;;19.90;70.80;;;;;;9184585;19;20103;-68
2023/09/06 01:32:32;;;;;;;4.68;2.83;;;19.90;70.80;;;;;;9183985;19;20019;-68
2023/09/06 01:35:40;;;;;;;7.10;3.70;;;19.80;70.90;;;;;;9182236;19;20022;-67
2023/09/06 01:38:45;;;;;;;8.10;3.42;;;19.70;70.90;;;;;;9184983;19;20019;-67
2023/09/06 01:41:56;;;;;;;7.70;3.50;;;19.80;71.00;;;;;;9182768;19;20002;-67
2023/09/06 01:45:01;;;;;;;6.57;3.60;;;19.80;71.20;;;;;;9184902;19;20412;-66
2023/09/06 01:48:09;;;;;;;6.78;3.35;;;19.80;71.20;;;;;;9185145;19;20043;-67
2023/09/06 01:51:15;;;;;;;5.35;3.35;;;19.70;71.20;;;;;;9182743;19;20463;-68
2023/09/06 01:54:22;;;;;;;6.10;3.45;;;19.80;71.30;;;;;;9182454;19;20476;-68
2023/09/06 01:57:30;;;;;;;6.03;3.63;;;19.70;71.40;;;;;;9183033;19;20436;-68
2023/09/06 02:00:38;;;;;;;5.90;3.08;;;19.70;71.40;;;;;;9181804;19;20011;-68
2023/09/06 02:03:43;;;;;;;5.90;3.40;;;19.70;71.50;;;;;;9184891;19;20471;-67
2023/09/06 02:06:51;;;;;;;4.00;2.80;;;19.60;71.40;;;;;;9184179;19;20030;-67
2023/09/06 02:09:56;;;;;;;4.60;3.00;;;19.60;71.50;;;;;;9182856;19;20123;-67
2023/09/06 02:13:07;;;;;;;6.20;3.50;;;19.60;71.60;;;;;;9180387;19;20452;-67
2023/09/06 02:16:12;;;;;;;6.22;3.35;;;19.60;71.70;;;;;;9177360;19;20033;-67
2023/09/06 02:19:21;;;;;;;5.07;3.28;;;19.60;71.70;;;;;;9182593;19;20018;-67
2023/09/06 02:22:26;;;;;;;5.53;3.60;;;19.50;71.70;;;;;;9182356;19;20532;-68
2023/09/06 02:25:35;;;;;;;6.10;3.00;;;19.60;71.80;;;;;;9182328;19;20499;-67
2023/09/06 02:28:43;;;;;;;6.07;3.65;;;19.50;71.70;;;;;;9178444;19;20021;-67
2023/09/06 02:31:52;;;;;;;6.53;3.58;;;19.50;71.90;;;;;;9182121;19;20014;-66
2023/09/06 02:34:57;;;;;;;7.30;3.97;;;19.40;71.80;;;;;;9179725;19;20015;-68
2023/09/06 02:38:05;;;;;;;5.25;3.70;;;19.40;71.90;;;;;;9180590;19;20456;-69
2023/09/06 02:41:10;;;;;;;4.63;3.33;;;19.40;72.00;;;;;;9182947;19;20031;-67
2023/09/06 02:44:20;;;;;;;6.00;3.83;;;19.40;72.00;;;;;;9182378;19;20011;-68
2023/09/06 02:47:28;;;;;;;5.65;4.20;;;19.30;72.10;;;;;;9177723;19;20385;-67
2023/09/06 02:50:37;;;;;;;4.47;3.47;;;19.30;72.10;;;;;;9182763;19;20026;-67
2023/09/06 02:53:45;;;;;;;5.45;3.63;;;19.30;72.20;;;;;;9181647;19;20427;-67
2023/09/06 02:56:56;;;;;;;6.28;3.80;;;19.20;72.20;;;;;;9177316;19;20007;-67
2023/09/06 03:00:18;;;;;;;9.75;4.15;;;19.20;72.20;;;;;;9180830;19;20379;-67
2023/09/06 03:03:27;;;;;;;7.07;4.72;;;19.20;72.30;;;;;;9180003;19;20010;-66
2023/09/06 03:06:37;;;;;;;5.05;4.20;;;19.20;72.40;;;;;;9179034;19;20486;-66
2023/09/06 03:09:46;;;;;;;6.10;3.65;;;19.10;72.30;;;;;;9177569;19;20018;-68
2023/09/06 03:12:56;;;;;;;5.68;3.63;;;19.10;72.50;;;;;;9181247;19;20026;-67
2023/09/06 03:16:13;;;;;;;8.00;3.80;;;19.10;72.70;;;;;;9177368;19;20355;-67
2023/09/06 03:19:21;;;;;;;8.65;3.65;;;19.10;72.70;;;;;;9179048;19;20048;-67
2023/09/06 03:22:29;;;;;;;8.77;4.07;;;19.00;72.70;;;;;;9180820;19;20029;-67
2023/09/06 03:25:40;;;;;;;5.68;3.85;;;19.00;72.70;;;;;;9180362;19;20476;-67
2023/09/06 03:28:47;;;;;;;7.18;3.75;;;19.00;72.80;;;;;;9179792;19;20022;-67
2023/09/06 03:31:59;;;;;;;7.13;4.07;;;19.00;72.90;;;;;;9178019;19;20025;-67
2023/09/06 03:35:08;;;;;;;6.80;3.78;;;19.00;73.00;;;;;;9177852;19;20029;-67
2023/09/06 03:38:17;;;;;;;7.82;3.83;;;19.00;73.00;;;;;;9178256;19;20106;-66
2023/09/06 03:41:25;;;;;;;6.18;3.60;;;18.90;73.10;;;;;;9179850;19;20010;-67
2023/09/06 03:44:31;;;;;;;6.63;4.10;;;19.00;73.30;;;;;;9178516;19;20014;-68
2023/09/06 03:47:41;;;;;;;5.70;3.47;;;18.90;73.90;;;;;;9176771;19;20033;-66
2023/09/06 03:50:47;;;;;;;8.73;4.00;;;18.90;73.30;;;;;;9178402;19;20023;-67
2023/09/06 03:53:57;;;;;;;5.70;3.65;;;18.90;73.30;;;;;;9179792;19;20006;-67
2023/09/06 03:57:02;;;;;;;7.38;4.20;;;18.90;73.40;;;;;;9175703;19;20082;-65
2023/09/06 04:00:30;;;;;;;5.30;3.97;;;18.90;73.50;;;;;;9176004;19;20013;-66
2023/09/06 04:03:54;;;;;;;7.35;4.15;;;18.90;73.60;;;;;;9177168;19;20044;-67
2023/09/06 04:07:02;;;;;;;13.80;4.47;;;18.90;73.60;;;;;;9176978;19;20392;-67
2023/09/06 04:10:16;;;;;;;5.18;3.53;;;18.80;73.40;;;;;;9178445;19;20388;-67
2023/09/06 04:13:24;;;;;;;6.10;3.47;;;18.80;73.50;;;;;;9176259;19;20014;-67
2023/09/06 04:16:31;;;;;;;5.82;4.18;;;18.80;73.50;;;;;;9175696;19;20026;-68
2023/09/06 04:19:41;;;;;;;8.07;3.55;;;18.80;73.50;;;;;;9175867;19;20014;-67
2023/09/06 04:22:46;;;;;;;6.95;3.38;;;18.80;73.60;;;;;;9176786;19;20022;-66
2023/09/06 04:25:56;;;;;;;7.05;4.00;;;18.80;73.50;;;;;;9172055;19;20018;-66
2023/09/06 04:29:05;;;;;;;5.88;3.90;;;18.80;73.60;;;;;;9175336;19;20007;-66
2023/09/06 04:32:12;;;;;;;5.90;3.58;;;18.70;73.60;;;;;;9175627;19;20356;-68
2023/09/06 04:35:22;;;;;;;7.88;3.97;;;18.70;73.60;;;;;;9177933;19;20018;-66
2023/09/06 04:38:31;;;;;;;6.05;3.95;;;18.70;73.70;;;;;;9174927;19;20022;-66
2023/09/06 04:41:39;;;;;;;13.30;3.83;;;18.70;73.70;;;;;;9174905;19;20029;-67
2023/09/06 04:44:47;;;;;;;5.88;4.47;;;18.70;73.70;;;;;;9175887;19;20010;-67
2023/09/06 04:47:56;;;;;;;6.72;4.72;;;18.60;73.70;;;;;;9174995;19;20471;-67
2023/09/06 04:51:06;;;;;;;6.60;4.10;;;18.60;73.80;;;;;;9174562;19;20490;-67
2023/09/06 04:54:12;;;;;;;16.08;4.40;;;18.60;74.00;;;;;;9175434;19;20630;-67
2023/09/06 04:57:19;;;;;;;7.65;3.78;;;18.60;73.90;;;;;;9169392;19;20107;-67
2023/09/06 05:00:30;;;;;;;8.68;3.92;;;18.50;73.90;;;;;;9169980;19;20022;-67
2023/09/06 05:03:39;;;;;;;7.38;3.80;;;18.50;74.00;;;;;;9170168;19;20022;-67
2023/09/06 05:06:48;;;;;;;9.35;4.57;;;18.50;74.10;;;;;;9170350;19;20022;-67
2023/09/06 05:09:57;;;;;;;7.63;3.67;;;18.50;74.20;;;;;;9170582;19;20018;-67
2023/09/06 05:13:07;;;;;;;10.00;4.47;;;18.40;74.00;;;;;;9173806;19;20489;-67
2023/09/06 05:16:18;;;;;;;5.22;4.13;;;18.40;74.10;;;;;;9174309;19;20021;-67
2023/09/06 05:19:27;;;;;;;5.53;3.83;;;18.40;74.20;;;;;;9173852;19;20106;-68
2023/09/06 05:22:38;;;;;;;7.32;4.38;;;18.40;74.50;;;;;;9173567;19;20034;-67
2023/09/06 05:25:46;;;;;;;7.20;4.38;;;18.40;75.80;;;;;;9170773;19;20022;-68
2023/09/06 05:29:04;;;;;;;6.07;3.58;;;18.50;78.30;;;;;;9174348;19;20010;-67
2023/09/06 05:32:11;;;;;;;6.00;4.15;;;;;;;;;;9174665;19;20439;-66
2023/09/06 05:35:19;;;;;;;7.55;4.18;;;18.30;73.80;;;;;;9172754;19;20015;-67
2023/09/06 05:38:27;;;;;;;7.07;4.45;;;18.30;74.40;;;;;;9172955;19;20027;-68
2023/09/06 05:41:36;;;;;;;4.95;3.60;;;18.30;74.50;;;;;;9173520;19;20007;-66
2023/09/06 05:44:41;;;;;;;4.68;3.60;;;18.30;75.20;;;;;;9174921;19;20022;-66
2023/09/06 05:47:48;;;;;;;6.10;4.00;;;18.30;74.60;;;;;;9174395;19;20014;-67
2023/09/06 05:50:55;;;;;;;5.53;3.53;;;18.30;74.60;;;;;;9173760;19;20018;-67
2023/09/06 05:54:06;;;;;;;9.65;4.70;;;18.30;74.70;;;;;;9181811;19;20010;-67
2023/09/06 05:57:14;;;;;;;7.47;4.47;;;18.20;74.80;;;;;;9182566;19;20344;-67
2023/09/06 06:00:22;;;;;;;7.18;3.95;;;18.30;74.80;;;;;;9179538;19;20010;-67
2023/09/06 06:03:31;;;;;;;12.57;4.97;;;18.30;75.00;;;;;;9181352;19;20022;-68
2023/09/06 06:06:38;;;;;;;8.15;4.50;;;18.30;75.10;;;;;;9184090;19;20026;-66
2023/09/06 06:09:48;;;;;;;8.35;4.43;;;18.40;75.30;;;;;;9170141;19;20022;-67
2023/09/06 06:12:55;;;;;;;6.63;4.15;;;18.40;75.60;;;;;;9167245;19;20380;-66
2023/09/06 06:16:01;;;;;;;7.63;4.78;;;18.60;75.70;;;;;;9163119;19;20026;-66
2023/09/06 06:19:09;;;;;;;5.22;4.35;;;18.70;75.90;;;;;;9159873;19;20026;-65
2023/09/06 06:22:15;;;;;;;6.88;4.18;;;18.90;76.00;;;;;;9161605;19;20022;-66
2023/09/06 06:25:25;;;;;;;7.47;4.38;;;19.10;76.10;;;;;;9162066;19;20022;-69
2023/09/06 06:28:30;;;;;;;16.30;4.70;;;19.30;76.20;;;;;;9171066;19;21098;-68
2023/09/06 06:31:38;;;;;;;8.73;4.22;;;19.50;76.10;;;;;;9175547;19;20431;-68
2023/09/06 06:34:44;;;;;;;5.50;3.78;;;19.80;76.10;;;;;;9180723;19;20011;-68
2023/09/06 06:37:52;;;;;;;8.50;3.92;;;20.00;76.10;;;;;;9176716;19;20021;-67
2023/09/06 06:41:00;;;;;;;6.00;3.97;;;20.40;76.00;;;;;;9169390;19;20010;-67
2023/09/06 06:44:08;;;;;;;7.57;4.22;;;20.60;75.70;;;;;;9178244;19;20021;-66
2023/09/06 06:47:13;;;;;;;7.50;3.75;;;20.90;75.60;;;;;;9175719;19;20011;-67
2023/09/06 06:50:21;;;;;;;9.23;3.97;;;21.20;75.40;;;;;;9174381;19;20029;-67
2023/09/06 06:53:27;;;;;;;7.38;3.95;;;21.40;75.10;;;;;;9180453;19;20018;-68
2023/09/06 06:56:38;;;;;;;8.63;4.00;;;21.70;75.00;;;;;;9174619;19;20015;-67
2023/09/06 06:59:44;;;;;;;7.90;3.60;;;21.90;74.70;;;;;;9176439;19;20022;-68
2023/09/06 07:02:51;;;;;;;13.55;6.97;;;22.20;74.50;;;;;;9176351;19;20006;-68
2023/09/06 07:05:57;;;;;;;7.78;3.72;;;22.40;74.30;;;;;;9174880;19;20061;-70
2023/09/06 07:09:05;;;;;;;9.23;4.20;;;22.70;74.10;;;;;;9170162;19;20021;-69
2023/09/06 07:12:13;;;;;;;7.90;3.42;;;22.90;73.80;;;;;;9171782;19;20018;-71
2023/09/06 07:15:20;;;;;;;7.72;3.92;;;23.10;73.50;;;;;;9169921;19;20030;-70
2023/09/06 07:18:26;;;;;;;8.35;3.67;;;23.40;73.40;;;;;;9171158;19;20014;-71
2023/09/06 07:21:34;;;;;;;4.63;3.78;;;23.60;73.10;;;;;;9170699;19;20014;-70
2023/09/06 07:24:39;;;;;;;5.75;2.75;;;23.90;72.70;;;;;;9168138;19;20034;-70
2023/09/06 07:27:49;;;;;;;4.47;3.20;;;24.10;72.40;;;;;;9169425;19;20029;-70
2023/09/06 07:30:55;;;;;;;5.93;3.42;;;24.20;72.00;;;;;;9169413;19;20037;-68
2023/09/06 07:34:03;;;;;;;10.30;3.50;;;24.40;71.80;;;;;;9173529;19;20014;-70
2023/09/06 07:37:10;;;;;;;10.38;2.75;;;24.50;71.60;;;;;;9168764;19;21527;-69
2023/09/06 07:40:17;;;;;;;4.07;2.90;;;24.50;71.40;;;;;;9170838;19;20021;-69
2023/09/06 07:43:25;;;;;;;5.03;2.95;;;24.60;71.20;;;;;;9173655;19;20078;-69
2023/09/06 07:46:34;;;;;;;7.25;2.70;;;24.70;70.90;;;;;;9172503;19;20010;-70
2023/09/06 07:49:39;;;;;;;5.65;2.60;;;24.70;70.80;;;;;;9167108;19;20576;-68
2023/09/06 07:52:46;;;;;;;4.00;2.63;;;24.70;70.70;;;;;;9169410;19;20021;-69
2023/09/06 07:55:52;;;;;;;4.63;2.55;;;24.70;70.60;;;;;;9173110;19;20015;-69
2023/09/06 07:59:02;;;;;;;3.80;2.25;;;24.70;70.60;;;;;;9171568;19;20003;-69
2023/09/06 08:02:08;;;;;;;4.13;2.42;;;24.80;70.60;;;;;;9173845;19;20018;-68
2023/09/06 08:05:16;;;;;;;7.43;2.38;;;24.80;70.40;;;;;;9171971;19;20018;-67
2023/09/06 08:08:22;;;;;;;6.13;2.65;;;24.80;70.20;;;;;;9171787;19;20027;-68
2023/09/06 08:11:29;;;;;;;2.95;2.30;;;24.80;70.30;;;;;;9178010;19;20025;-67
2023/09/06 08:14:38;;;;;;;3.10;2.33;;;24.80;70.40;;;;;;9173328;19;20035;-67
2023/09/06 08:17:47;;;;;;;5.65;2.35;;;24.80;70.30;;;;;;9175793;19;20014;-67
2023/09/06 08:20:54;;;;;;;4.05;2.05;;;24.80;70.30;;;;;;9171266;19;20022;-67
2023/09/06 08:24:02;;;;;;;8.98;2.28;;;24.90;70.20;;;;;;9174738;19;20695;-69
2023/09/06 08:27:07;;;;;;;3.88;1.90;;;25.00;70.10;;;;;;9162851;19;20010;-69
2023/09/06 08:30:18;;;;;;;4.75;2.00;;;25.00;70.00;;;;;;9171750;19;20014;-68
2023/09/06 08:33:24;;;;;;;3.92;2.33;;;25.20;70.00;;;;;;9167591;19;20423;-69
2023/09/06 08:36:35;;;;;;;4.57;2.15;;;25.30;70.00;;;;;;9172448;19;20018;-70
2023/09/06 08:39:40;;;;;;;2.63;1.95;;;25.40;69.60;;;;;;9173775;19;20015;-69
2023/09/06 08:42:48;;;;;;;3.50;1.95;;;25.60;69.40;;;;;;9177980;19;20015;-68
2023/09/06 08:45:56;;;;;;;4.57;2.38;;;25.80;69.30;;;;;;9172847;19;20372;-67
2023/09/06 08:49:06;;;;;;;7.43;1.92;;;26.00;69.10;;;;;;9168253;19;20045;-69
2023/09/06 08:52:13;;;;;;;3.45;1.92;;;26.20;68.90;;;;;;9174156;19;20022;-70
2023/09/06 08:55:20;;;;;;;7.47;1.90;;;26.40;68.60;;;;;;9171914;19;20022;-68
2023/09/06 08:58:26;;;;;;;3.25;2.03;;;26.60;68.50;;;;;;9172526;19;20120;-67
2023/09/06 09:01:37;;;;;;;3.15;2.15;;;26.90;68.30;;;;;;9171740;19;20026;-67
2023/09/06 09:04:43;;;;;;;6.28;1.90;;;27.10;67.90;;;;;;9172337;19;20401;-68
2023/09/06 09:07:58;;;;;;;3.22;2.03;;;27.30;67.70;;;;;;9170980;19;20100;-68
2023/09/06 09:11:14;;;;;;;3.97;2.00;;;27.60;67.40;;;;;;9174210;19;20018;-69
2023/09/06 09:14:23;;;;;;;3.75;1.88;;;27.80;66.70;;;;;;9173905;19;20017;-71
2023/09/06 09:17:32;;;;;;;7.95;2.10;;;28.00;66.50;;;;;;9172165;19;20059;-69
2023/09/06 09:20:54;;;;;;;3.80;2.23;;;28.20;66.30;;;;;;9173205;19;20018;-69
2023/09/06 09:23:59;;;;;;;2.50;1.40;;;28.30;65.90;;;;;;9175793;19;20476;-71
2023/09/06 09:27:07;;;;;;;4.05;1.80;;;28.60;65.80;;;;;;9176871;19;20018;-71
2023/09/06 09:30:14;;;;;;;2.35;1.90;;;28.70;65.20;;;;;;9184572;19;20015;-67
2023/09/06 09:33:29;;;;;;;6.55;1.85;;;28.90;64.20;;;;;;9182641;19;20025;-68
2023/09/06 09:36:36;;;;;;;5.07;1.98;;;29.10;64.30;;;;;;9181973;19;20483;-67
2023/09/06 09:39:44;;;;;;;4.25;1.80;;;29.20;64.10;;;;;;9181221;19;20030;-67
2023/09/06 09:42:56;;;;;;;2.63;1.65;;;29.40;64.00;;;;;;9178695;19;20035;-66
2023/09/06 09:46:04;;;;;;;7.25;2.00;;;29.60;63.50;;;;;;9178902;19;20023;-67
2023/09/06 09:49:13;;;;;;;3.05;1.80;;;29.80;63.90;;;;;;9179504;19;20019;-67
2023/09/06 09:52:21;;;;;;;6.72;3.08;;;29.90;62.80;;;;;;9179239;19;20014;-68
2023/09/06 09:55:31;;;;;;;4.68;2.90;;;30.00;62.70;;;;;;9182409;19;20489;-69
2023/09/06 09:58:41;;;;;;;7.82;2.40;;;30.20;62.40;;;;;;9180790;19;20020;-70
2023/09/06 10:01:47;;;;;;;6.22;2.20;;;30.30;62.80;;;;;;9177152;19;20025;-69
2023/09/06 10:04:58;;;;;;;4.03;2.00;;;30.40;61.90;;;;;;9181737;19;20017;-70
2023/09/06 10:08:07;;;;;;;5.07;1.80;;;30.60;61.60;;;;;;9181905;19;20364;-70
2023/09/06 10:11:19;;;;;;;3.17;1.88;;;30.70;61.50;;;;;;9178269;19;20015;-70
2023/09/06 10:14:26;;;;;;;2.95;2.03;;;30.90;61.30;;;;;;9178096;19;20026;-69
2023/09/06 10:17:34;;;;;;;2.95;1.90;;;31.00;61.80;;;;;;9177002;19;20812;-70
2023/09/06 10:20:42;;;;;;;3.38;1.67;;;31.10;60.90;;;;;;9173125;19;20401;-68
2023/09/06 10:23:50;;;;;;;3.15;1.70;;;31.20;60.60;;;;;;9180299;19;20015;-67
2023/09/06 10:26:56;;;;;;;4.57;1.80;;;31.30;60.50;;;;;;9171844;19;20634;-70
2023/09/06 10:30:10;;;;;;;3.88;2.00;;;31.40;60.10;;;;;;9177678;19;20017;-69
2023/09/06 10:33:47;;;;;;;2.27;1.50;;;31.60;60.00;;;;;;9178729;19;20025;-66
2023/09/06 10:37:00;;;;;;;4.35;1.70;;;31.70;59.40;;;;;;9174577;19;20014;-67
2023/09/06 10:40:12;;;;;;;2.47;1.70;;;31.90;59.40;;;;;;9172666;19;20109;-67
2023/09/06 10:43:22;;;;;;;4.03;1.92;;;31.90;59.20;;;;;;9179934;19;20014;-68
2023/09/06 10:46:30;;;;;;;2.90;1.92;;;32.00;59.00;;;;;;9177738;19;20128;-66
2023/09/06 10:49:37;;;;;;;2.85;1.80;;;32.10;58.80;;;;;;9175573;19;20673;-68
2023/09/06 10:52:52;;;;;;;6.90;2.20;;;32.20;58.70;;;;;;9177085;19;20015;-70
2023/09/06 10:56:02;;;;;;;2.75;1.85;;;32.30;58.50;;;;;;9181715;19;20017;-69
2023/09/06 10:59:08;;;;;;;3.63;1.85;;;32.40;58.40;;;;;;9179767;19;20078;-69
2023/09/06 11:02:27;;;;;;;4.60;1.63;;;32.50;58.10;;;;;;9180527;19;20025;-69
2023/09/06 11:05:36;;;;;;;3.75;1.60;;;32.60;57.40;;;;;;9181843;19;20021;-68
2023/09/06 11:08:56;;;;;;;2.70;1.70;;;32.60;57.30;;;;;;9178002;19;20025;-68
2023/09/06 11:12:03;;;;;;;4.18;1.77;;;32.70;57.20;;;;;;9174386;19;20101;-68
2023/09/06 11:15:12;;;;;;;2.80;1.83;;;32.70;57.10;;;;;;9179386;19;20010;-69
2023/09/06 11:18:17;;;;;;;6.07;2.10;;;32.80;57.00;;;;;;9178565;19;20047;-69
2023/09/06 11:21:25;;;;;;;2.50;2.05;;;32.90;56.80;;;;;;9174582;19;20015;-68
2023/09/06 11:24:38;;;;;;;3.10;1.70;;;32.90;56.70;;;;;;9177927;19;20017;-68
2023/09/06 11:27:45;;;;;;;4.43;1.63;;;33.00;56.40;;;;;;9171761;19;20025;-67
2023/09/06 11:30:51;;;;;;;3.38;1.55;;;33.10;56.60;;;;;;9178453;19;20010;-67
2023/09/06 11:34:05;;;;;;;10.65;2.30;;;33.20;56.50;;;;;;9171508;19;20010;-72
2023/09/06 11:37:14;;;;;;;5.32;1.65;;;33.20;55.90;;;;;;9178109;19;20025;-68
2023/09/06 11:40:28;;;;;;;4.72;1.70;;;33.30;56.10;;;;;;9178440;19;20379;-67
2023/09/06 11:43:34;;;;;;;3.13;1.67;;;33.40;55.90;;;;;;9177865;19;20603;-68
2023/09/06 11:46:43;;;;;;;3.70;1.73;;;33.40;55.80;;;;;;9178697;19;20341;-68
2023/09/06 11:49:49;;;;;;;2.10;1.50;;;33.50;55.70;;;;;;9174944;19;20022;-66
2023/09/06 11:52:58;;;;;;;4.85;1.63;;;33.50;55.30;;;;;;9178842;19;20082;-67
2023/09/06 11:56:11;;;;;;;1.83;1.42;;;33.60;55.00;;;;;;9179235;19;20380;-66
2023/09/06 11:59:20;;;;;;;4.00;1.75;;;33.60;54.50;;;;;;9179384;19;20052;-67
2023/09/06 12:02:30;;;;;;;2.20;1.35;;;33.60;54.40;;;;;;9173326;19;20102;-67
2023/09/06 12:05:40;;;;;;;2.38;1.50;;;33.70;54.10;;;;;;9179750;19;20017;-67
2023/09/06 12:08:54;;;;;;;5.88;1.48;;;33.70;54.00;;;;;;9177361;19;20019;-66
2023/09/06 12:12:07;;;;;;;2.78;1.30;;;33.70;54.40;;;;;;9178612;19;20023;-66
2023/09/06 12:15:19;;;;;;;2.95;1.70;;;33.70;53.40;;;;;;9177338;19;20483;-65
2023/09/06 12:18:27;;;;;;;2.65;1.60;;;33.80;53.50;;;;;;9178463;19;20022;-66
2023/09/06 12:21:34;;;;;;;4.15;1.60;;;33.80;53.40;;;;;;9176441;19;20022;-67
2023/09/06 12:24:45;;;;;;;9.70;1.50;;;33.90;53.40;;;;;;9179656;19;20021;-66
2023/09/06 12:27:54;;;;;;;3.85;1.45;;;33.90;53.30;;;;;;9173501;19;20022;-65
2023/09/06 12:31:03;;;;;;;2.00;1.42;;;33.90;52.90;;;;;;9177533;19;20431;-69
2023/09/06 12:34:11;;;;;;;1.52;1.38;;;33.90;53.40;;;;;;9177250;19;20018;-70
2023/09/06 12:37:19;;;;;;;2.50;1.55;;;34.00;52.80;;;;;;9176864;19;20010;-68
2023/09/06 12:40:27;;;;;;;2.28;1.42;;;34.00;52.80;;;;;;9171662;19;20021;-69
2023/09/06 12:43:37;;;;;;;2.83;1.73;;;34.10;52.60;;;;;;9156706;19;20022;-69
2023/09/06 12:46:43;;;;;;;2.47;1.55;;;34.10;52.40;;;;;;9157472;19;20026;-69
2023/09/06 12:49:51;;;;;;;4.32;1.40;;;34.10;52.30;;;;;;9159753;19;20018;-66
2023/09/06 12:52:57;;;;;;;4.63;1.67;;;34.20;52.10;;;;;;9160591;19;20081;-69
2023/09/06 12:56:07;;;;;;;2.15;1.30;;;34.10;51.90;;;;;;9156010;19;20476;-67
2023/09/06 12:59:19;;;;;;;2.95;1.35;;;34.20;51.90;;;;;;9158418;19;20698;-67
2023/09/06 13:02:28;;;;;;;3.10;2.05;;;34.20;51.70;;;;;;9164573;19;20379;-66
2023/09/06 13:05:33;;;;;;;3.78;1.50;;;34.10;51.50;;;;;;9165171;19;20026;-67
2023/09/06 13:08:41;;;;;;;2.58;1.48;;;34.10;51.40;;;;;;9169709;19;20021;-67
2023/09/06 13:11:47;;;;;;;2.25;1.15;;;34.10;51.40;;;;;;9171437;19;20019;-67
2023/09/06 13:14:57;;;;;;;4.32;1.58;;;34.10;51.30;;;;;;9166514;19;20018;-68
2023/09/06 13:18:03;;;;;;;1.73;1.30;;;34.10;51.10;;;;;;9163600;19;20029;-66
2023/09/06 13:21:12;;;;;;;1.80;1.35;;;34.10;51.20;;;;;;9163235;19;20015;-68
2023/09/06 13:24:17;;;;;;;2.88;1.10;;;34.00;51.10;;;;;;9170016;19;20015;-66
2023/09/06 13:27:25;;;;;;;1.75;1.17;;;34.20;51.10;;;;;;9159981;19;20010;-67
2023/09/06 13:30:33;;;;;;;1.48;1.08;;;34.10;50.80;;;;;;9165092;19;20056;-66
2023/09/06 13:33:42;;;;;;;1.88;1.30;;;34.10;50.60;;;;;;9167926;19;20021;-65
2023/09/06 13:36:49;;;;;;;4.07;1.40;;;34.10;50.70;;;;;;9164901;19;20038;-67
2023/09/06 13:39:57;;;;;;;2.03;1.10;;;34.00;50.50;;;;;;9160448;19;20636;-66
2023/09/06 13:43:03;;;;;;;4.03;1.58;;;34.00;50.50;;;;;;9161603;19;20019;-67
2023/09/06 13:46:13;;;;;;;1.80;1.23;;;33.90;50.40;;;;;;9165862;19;20014;-67
2023/09/06 13:49:18;;;;;;;1.98;1.40;;;33.90;50.40;;;;;;9163734;19;20010;-67
2023/09/06 13:52:26;;;;;;;4.65;1.50;;;33.90;50.50;;;;;;9166150;19;20371;-67
2023/09/06 13:55:32;;;;;;;4.10;1.30;;;33.80;50.60;;;;;;9167685;19;20479;-66
2023/09/06 13:58:39;;;;;;;3.60;1.50;;;33.80;50.70;;;;;;9163896;19;20021;-68
2023/09/06 14:01:47;;;;;;;4.28;1.30;;;33.80;50.70;;;;;;9160331;19;20099;-66
2023/09/06 14:04:57;;;;;;;4.63;1.40;;;33.70;50.40;;;;;;9162260;19;20011;-67
2023/09/06 14:08:02;;;;;;;2.00;1.17;;;33.70;50.50;;;;;;9160609;19;20029;-65
2023/09/06 14:11:10;;;;;;;1.92;1.30;;;33.70;50.50;;;;;;9162652;19;20021;-64
2023/09/06 14:14:15;;;;;;;4.60;1.83;;;33.70;50.40;;;;;;9163991;19;20014;-66
2023/09/06 14:17:25;;;;;;;1.88;1.40;;;33.60;50.20;;;;;;9163969;19;20011;-66
2023/09/06 14:20:34;;;;;;;3.60;1.50;;;33.60;50.10;;;;;;9162996;19;20022;-65
2023/09/06 14:23:42;;;;;;;2.00;1.58;;;33.60;50.20;;;;;;9159409;19;20025;-66
2023/09/06 14:26:47;;;;;;;1.88;1.00;;;33.60;50.30;;;;;;9154784;19;20038;-66
2023/09/06 14:29:57;;;;;;;2.50;1.13;;;33.50;50.20;;;;;;9154384;19;20026;-66
2023/09/06 14:33:06;;;;;;;1.30;1.02;;;33.50;50.10;;;;;;9163041;19;20023;-66
2023/09/06 14:36:13;;;;;;;3.17;1.48;;;33.50;50.10;;;;;;9163990;19;20486;-67
2023/09/06 14:39:18;;;;;;;1.48;1.25;;;33.40;50.00;;;;;;9162097;19;20018;-67
2023/09/06 14:42:29;;;;;;;1.98;1.20;;;33.40;50.10;;;;;;9160545;19;20022;-68
2023/09/06 14:45:34;;;;;;;1.58;1.20;;;33.40;50.20;;;;;;9162737;19;20014;-67
2023/09/06 14:48:44;;;;;;;1.88;1.23;;;33.30;50.10;;;;;;9159678;19;20468;-67
2023/09/06 14:51:49;;;;;;;4.78;1.40;;;33.30;50.60;;;;;;9159441;19;20085;-68
2023/09/06 14:54:57;;;;;;;1.40;1.30;;;33.30;50.00;;;;;;9163150;19;20014;-69
2023/09/06 14:58:04;;;;;;;3.00;1.20;;;33.20;49.80;;;;;;9163365;19;20406;-67
2023/09/06 15:01:11;;;;;;;3.10;1.38;;;33.20;49.80;;;;;;9161441;19;20025;-66
2023/09/06 15:04:19;;;;;;;2.25;1.25;;;33.20;49.80;;;;;;9161184;19;20015;-65
2023/09/06 15:07:27;;;;;;;2.25;1.40;;;33.10;49.60;;;;;;9163816;19;20067;-67
2023/09/06 15:10:32;;;;;;;2.08;0.88;;;33.00;49.70;;;;;;9157866;19;20018;-67
2023/09/06 15:13:40;;;;;;;3.85;1.13;;;33.00;49.60;;;;;;9163838;19;20599;-66
2023/09/06 15:16:47;;;;;;;1.75;1.10;;;33.00;49.60;;;;;;9158410;19;20376;-68
2023/09/06 15:19:57;;;;;;;3.30;1.38;;;32.90;49.60;;;;;;9158430;19;20010;-67
2023/09/06 15:23:03;;;;;;;1.40;1.17;;;32.90;49.40;;;;;;9164934;19;20015;-66
2023/09/06 15:26:11;;;;;;;4.45;1.52;;;32.80;49.50;;;;;;9154631;19;20042;-67
2023/09/06 15:29:17;;;;;;;2.00;1.20;;;32.80;49.70;;;;;;9161319;19;20018;-66
2023/09/06 15:32:24;;;;;;;2.15;1.25;;;32.80;49.70;;;;;;9165703;19;20507;-67
2023/09/06 15:35:32;;;;;;;1.85;1.20;;;32.80;49.80;;;;;;9165038;19;20662;-68
2023/09/06 15:38:41;;;;;;;1.90;1.17;;;32.70;49.60;;;;;;9171131;19;20022;31
2023/09/06 15:41:47;;;;;;;3.03;1.48;;;32.70;49.60;;;;;;9173949;19;20018;-67
2023/09/06 15:44:54;;;;;;;3.28;2.13;;;32.60;49.70;;;;;;9173032;19;20090;-68
2023/09/06 15:48:00;;;;;;;3.78;2.42;;;32.60;49.70;;;;;;9175519;19;20026;-67
2023/09/06 15:51:10;;;;;;;6.80;1.75;;;32.50;49.70;;;;;;9167494;19;20018;-68
2023/09/06 15:54:15;;;;;;;2.53;1.50;;;32.50;49.70;;;;;;9170365;19;20023;-68
2023/09/06 15:57:25;;;;;;;8.57;1.92;;;32.50;49.80;;;;;;9176460;19;20014;-67
2023/09/06 16:00:31;;;;;;;1.98;1.50;;;32.40;49.80;;;;;;9178823;19;20044;-68
2023/09/06 16:03:39;;;;;;;1.48;1.27;;;32.30;49.80;;;;;;9175162;19;20010;-68
2023/09/06 16:06:47;;;;;;;2.55;1.35;;;32.30;49.90;;;;;;9177329;19;20044;-67
2023/09/06 16:09:54;;;;;;;2.38;1.58;;;32.20;49.90;;;;;;9176716;19;20014;-67
2023/09/06 16:13:00;;;;;;;5.20;1.90;;;32.20;50.00;;;;;;9176703;19;20487;-67
2023/09/06 16:16:08;;;;;;;2.55;1.60;;;32.10;50.00;;;;;;9175275;19;20018;-67
2023/09/06 16:19:13;;;;;;;2.00;1.27;;;32.00;50.10;;;;;;9178729;19;20038;-66
2023/09/06 16:22:25;;;;;;;1.40;1.20;;;31.90;50.20;;;;;;9176353;19;20029;-69